createdAt,value
2023-02-05T00:02:17.610Z,6.07
2023-02-05T00:04:44.584Z,2.97
2023-02-05T00:07:11.513Z,5.13
2023-02-05T00:09:41.122Z,8.50
2023-02-05T00:12:08.317Z,6.45
2023-02-05T00:14:35.217Z,5.35
2023-02-05T00:17:02.374Z,8.20
2023-02-05T00:19:29.260Z,6.72
2023-02-05T00:21:56.191Z,6.03
2023-02-05T00:24:23.008Z,4.00
2023-02-05T00:26:50.126Z,3.30
2023-02-05T00:29:17.042Z,5.65
2023-02-05T00:31:44.101Z,2.88
2023-02-05T00:34:11.190Z,5.43
2023-02-05T00:36:38.082Z,5.07
2023-02-05T00:39:05.059Z,4.88
2023-02-05T00:41:31.943Z,3.88
2023-02-05T00:43:58.818Z,5.72
2023-02-05T00:46:25.786Z,5.13
2023-02-05T00:48:52.959Z,2.28
2023-02-05T00:51:19.780Z,4.40
2023-02-05T00:53:46.724Z,5.25
2023-02-05T00:56:13.656Z,6.50
2023-02-05T00:58:40.545Z,4.55
2023-02-05T01:01:07.383Z,6.30
2023-02-05T01:03:34.362Z,3.30
2023-02-05T01:06:03.540Z,3.78
2023-02-05T01:08:30.517Z,5.20
2023-02-05T01:10:57.508Z,5.15
2023-02-05T01:13:25.102Z,3.58
2023-02-05T01:15:52.307Z,2.20
2023-02-05T01:18:19.237Z,4.68
2023-02-05T01:20:46.098Z,4.60
2023-02-05T01:23:12.968Z,3.72
2023-02-05T01:25:40.408Z,3.65
2023-02-05T01:28:07.470Z,3.00
2023-02-05T01:30:34.880Z,2.72
2023-02-05T01:33:02.421Z,4.85
2023-02-05T01:35:29.600Z,3.72
2023-02-05T01:37:56.514Z,4.90
2023-02-05T01:40:23.545Z,4.43
2023-02-05T01:42:50.494Z,7.28
2023-02-05T01:45:23.279Z,6.72
2023-02-05T01:47:52.385Z,2.55
2023-02-05T01:50:25.494Z,5.75
2023-02-05T01:52:52.997Z,4.10
2023-02-05T01:55:20.984Z,6.00
2023-02-05T01:57:50.279Z,4.82
2023-02-05T02:00:17.428Z,9.07
2023-02-05T02:02:45.032Z,3.10
2023-02-05T02:05:18.626Z,6.18
2023-02-05T02:07:46.142Z,3.78
2023-02-05T02:10:16.226Z,9.77
2023-02-05T02:12:45.458Z,9.15
2023-02-05T02:15:18.673Z,8.10
2023-02-05T02:17:50.360Z,3.70
2023-02-05T02:20:22.827Z,2.95
2023-02-05T02:23:08.460Z,3.30
2023-02-05T02:25:45.719Z,7.22
2023-02-05T02:28:15.026Z,4.88
2023-02-05T02:30:52.550Z,6.80
2023-02-05T02:33:28.353Z,8.13
2023-02-05T02:36:18.452Z,10.50
2023-02-05T02:39:03.431Z,3.75
2023-02-05T02:41:35.216Z,3.45
2023-02-05T02:44:14.592Z,4.10
2023-02-05T02:46:54.912Z,8.02
2023-02-05T02:49:29.090Z,6.03
2023-02-05T02:51:58.878Z,3.00
2023-02-05T02:54:27.414Z,7.35
2023-02-05T02:56:56.920Z,5.72
2023-02-05T02:59:26.574Z,6.63
2023-02-05T03:01:57.625Z,7.55
2023-02-05T03:04:28.596Z,4.88
2023-02-05T03:07:00.891Z,3.92
2023-02-05T03:09:35.607Z,4.38
2023-02-05T03:12:02.556Z,7.13
2023-02-05T03:14:29.505Z,8.23
2023-02-05T03:16:56.894Z,2.67
2023-02-05T03:19:23.794Z,4.82
2023-02-05T03:21:56.724Z,9.07
2023-02-05T03:24:24.405Z,4.65
2023-02-05T03:26:51.291Z,5.97
2023-02-05T03:29:47.704Z,4.28
2023-02-05T03:32:36.245Z,3.78
2023-02-05T03:35:21.988Z,3.63
2023-02-05T03:38:09.423Z,2.40
2023-02-05T03:40:48.236Z,4.38
2023-02-05T03:43:33.826Z,4.32
2023-02-05T03:46:24.486Z,7.22
2023-02-05T03:48:54.133Z,6.68
2023-02-05T03:51:44.649Z,7.32
2023-02-05T03:54:23.694Z,4.03
2023-02-05T03:57:02.530Z,5.82
2023-02-05T03:59:30.584Z,5.07
2023-02-05T04:01:57.851Z,4.22
2023-02-05T04:04:25.454Z,3.03
2023-02-05T04:06:54.122Z,2.63
2023-02-05T04:09:21.052Z,8.40
2023-02-05T04:11:47.977Z,8.57
2023-02-05T04:14:15.155Z,5.22
2023-02-05T04:16:42.074Z,4.03
2023-02-05T04:19:09.085Z,6.88
2023-02-05T04:21:35.919Z,4.22
2023-02-05T04:24:03.197Z,4.97
2023-02-05T04:26:30.092Z,4.35
2023-02-05T04:28:56.982Z,5.15
2023-02-05T04:31:23.828Z,14.60
2023-02-05T04:33:50.681Z,7.07
2023-02-05T04:36:17.582Z,6.07
2023-02-05T04:38:44.435Z,7.53
2023-02-05T04:41:11.411Z,3.53
2023-02-05T04:43:38.354Z,3.10
2023-02-05T04:46:10.022Z,4.38
2023-02-05T04:48:38.032Z,3.40
2023-02-05T04:51:09.636Z,7.10
2023-02-05T04:53:37.202Z,5.32
2023-02-05T04:56:15.905Z,6.22
2023-02-05T04:58:43.830Z,3.90
2023-02-05T05:01:15.769Z,1.85
2023-02-05T05:03:43.481Z,11.00
2023-02-05T05:06:11.755Z,7.10
2023-02-05T05:08:39.163Z,11.02
2023-02-05T05:11:11.673Z,10.50
2023-02-05T05:13:38.896Z,10.15
2023-02-05T05:16:07.193Z,3.33
2023-02-05T05:18:35.275Z,7.70
2023-02-05T05:21:03.017Z,7.90
2023-02-05T05:23:30.612Z,6.95
2023-02-05T05:25:57.457Z,8.57
2023-02-05T05:28:24.629Z,4.70
2023-02-05T05:30:51.588Z,3.33
2023-02-05T05:33:18.491Z,7.13
2023-02-05T05:35:46.614Z,3.92
2023-02-05T05:38:13.451Z,4.07
2023-02-05T05:40:59.138Z,4.97
2023-02-05T05:43:44.430Z,3.67
2023-02-05T05:46:11.365Z,3.88
2023-02-05T05:48:38.375Z,4.07
2023-02-05T05:51:05.649Z,7.03
2023-02-05T05:53:33.386Z,4.35
2023-02-05T05:56:00.323Z,4.07
2023-02-05T05:58:27.140Z,9.63
2023-02-05T06:00:55.227Z,6.15
2023-02-05T06:03:22.484Z,7.70
2023-02-05T06:05:49.444Z,4.93
2023-02-05T06:08:16.643Z,8.98
2023-02-05T06:10:43.596Z,5.40
2023-02-05T06:13:11.295Z,7.80
2023-02-05T06:15:38.381Z,7.57
2023-02-05T06:18:05.512Z,10.18
2023-02-05T06:20:32.348Z,7.38
2023-02-05T06:22:59.188Z,4.90
2023-02-05T06:25:26.145Z,6.32
2023-02-05T06:27:53.046Z,5.60
2023-02-05T06:30:20.036Z,4.72
2023-02-05T06:32:46.835Z,4.07
2023-02-05T06:35:13.747Z,20.10
2023-02-05T06:37:47.997Z,19.70
2023-02-05T06:40:18.420Z,19.02
2023-02-05T06:42:45.875Z,10.10
2023-02-05T06:45:12.790Z,9.95
2023-02-05T06:47:40.253Z,5.50
2023-02-05T06:50:07.549Z,25.08
2023-02-05T06:52:34.432Z,43.92
2023-02-05T06:55:01.267Z,35.05
2023-02-05T06:57:28.336Z,31.52
2023-02-05T06:59:55.206Z,41.47
2023-02-05T07:02:22.164Z,19.05
2023-02-05T07:04:48.992Z,18.17
2023-02-05T07:07:17.120Z,21.63
2023-02-05T07:09:44.631Z,18.80
2023-02-05T07:12:11.523Z,26.50
2023-02-05T07:14:42.542Z,34.70
2023-02-05T07:17:09.663Z,13.40
2023-02-05T07:19:37.349Z,53.90
2023-02-05T07:22:05.709Z,23.67
2023-02-05T07:24:32.829Z,29.50
2023-02-05T07:26:59.757Z,16.08
2023-02-05T07:29:27.755Z,17.55
2023-02-05T07:31:54.707Z,29.85
2023-02-05T07:34:21.572Z,27.77
2023-02-05T07:36:52.906Z,23.48
2023-02-05T07:39:20.079Z,13.52
2023-02-05T07:41:47.092Z,16.17
2023-02-05T07:44:14.039Z,16.40
2023-02-05T07:46:40.989Z,16.73
2023-02-05T07:49:07.868Z,24.15
2023-02-05T07:51:35.474Z,13.32
2023-02-05T07:54:09.845Z,19.75
2023-02-05T07:56:36.908Z,7.15
2023-02-05T07:59:03.919Z,15.88
2023-02-05T08:01:30.793Z,14.15
2023-02-05T08:03:57.733Z,17.10
2023-02-05T08:06:24.825Z,30.40
2023-02-05T08:08:51.772Z,14.70
2023-02-05T08:11:19.412Z,12.90
2023-02-05T08:13:46.904Z,25.80
2023-02-05T08:16:18.002Z,13.05
2023-02-05T08:21:17.723Z,11.13
2023-02-05T08:23:44.613Z,7.72
2023-02-05T08:26:12.273Z,7.30
2023-02-05T08:28:39.265Z,5.00
2023-02-05T08:31:10.926Z,5.10
2023-02-05T08:33:37.825Z,12.52
2023-02-05T08:36:05.181Z,8.30
2023-02-05T08:38:32.043Z,10.88
2023-02-05T08:40:59.086Z,14.50
2023-02-05T08:43:26.004Z,6.75
2023-02-05T08:45:52.978Z,9.35
2023-02-05T08:48:20.008Z,14.45
2023-02-05T08:50:47.506Z,9.73
2023-02-05T08:53:15.544Z,6.78
2023-02-05T08:55:42.941Z,22.15
2023-02-05T08:58:09.829Z,11.02
2023-02-05T09:00:39.226Z,16.55
2023-02-05T09:03:06.924Z,12.57
2023-02-05T09:05:34.308Z,13.77
2023-02-05T09:08:01.308Z,10.18
2023-02-05T09:10:28.212Z,10.77
2023-02-05T09:12:55.280Z,11.93
2023-02-05T09:15:22.119Z,16.77
2023-02-05T09:17:49.303Z,6.93
2023-02-05T09:20:16.504Z,14.02
2023-02-05T09:22:43.427Z,13.73
2023-02-05T09:25:10.665Z,8.55
2023-02-05T09:27:37.612Z,6.07
2023-02-05T09:30:05.006Z,10.27
2023-02-05T09:32:32.024Z,13.40
2023-02-05T09:34:59.024Z,9.70
2023-02-05T09:37:26.058Z,14.05
2023-02-05T09:40:19.665Z,18.00
2023-02-05T09:42:52.463Z,16.58
2023-02-05T09:45:38.763Z,16.95
2023-02-05T09:48:27.778Z,41.55
2023-02-05T09:50:58.048Z,103.10
2023-02-05T09:53:35.473Z,67.93
2023-02-05T09:56:06.911Z,30.65
2023-02-05T09:58:36.414Z,25.27
2023-02-05T10:01:07.459Z,39.65
2023-02-05T10:03:45.740Z,45.58
2023-02-05T10:06:43.226Z,30.58
2023-02-05T10:09:13.194Z,28.30
2023-02-05T10:11:51.982Z,73.05
2023-02-05T10:14:44.728Z,31.45
2023-02-05T10:17:49.258Z,25.63
2023-02-05T10:20:35.121Z,20.30
2023-02-05T10:23:05.902Z,23.60
2023-02-05T10:26:14.122Z,177.93
2023-02-05T10:28:57.170Z,193.95
2023-02-05T10:31:34.840Z,144.68
2023-02-05T10:34:27.066Z,116.97
2023-02-05T10:36:54.704Z,142.27
2023-02-05T10:39:34.483Z,110.18
2023-02-05T10:42:28.341Z,116.90
2023-02-05T10:45:23.494Z,102.45
2023-02-05T10:47:50.839Z,92.28
2023-02-05T10:50:31.134Z,66.22
2023-02-05T10:52:58.043Z,76.03
2023-02-05T10:55:25.096Z,72.53
2023-02-05T10:57:52.047Z,69.43
2023-02-05T11:00:21.662Z,54.03
2023-02-05T11:02:55.185Z,56.35
2023-02-05T11:05:22.522Z,52.17
2023-02-05T11:07:52.628Z,42.33
2023-02-05T11:10:22.855Z,48.17
2023-02-05T11:12:56.852Z,35.27
2023-02-05T11:15:30.092Z,23.58
2023-02-05T11:18:05.503Z,10.32
2023-02-05T11:20:35.375Z,13.38
2023-02-05T11:23:22.345Z,10.18
2023-02-05T11:25:58.254Z,35.13
2023-02-05T11:28:32.865Z,27.10
2023-02-05T11:31:28.135Z,22.92
2023-02-05T11:34:21.260Z,25.60
2023-02-05T11:36:54.769Z,21.73
2023-02-05T11:39:43.399Z,20.35
2023-02-05T11:42:18.948Z,27.60
2023-02-05T11:44:53.876Z,25.27
2023-02-05T11:47:41.032Z,49.03
2023-02-05T11:50:27.065Z,31.27
2023-02-05T11:52:55.987Z,23.55
2023-02-05T11:55:34.696Z,25.02
2023-02-05T11:58:22.265Z,17.58
2023-02-05T12:00:54.567Z,16.48
2023-02-05T12:03:21.560Z,31.17
2023-02-05T12:05:54.588Z,22.10
2023-02-05T12:08:21.513Z,20.50
2023-02-05T12:11:06.949Z,41.25
2023-02-05T12:13:54.331Z,22.48
2023-02-05T12:16:48.467Z,31.50
2023-02-05T12:19:24.612Z,22.35
2023-02-05T12:22:04.684Z,13.10
2023-02-05T12:24:43.789Z,32.08
2023-02-05T12:27:16.754Z,28.15
2023-02-05T12:30:09.760Z,16.55
2023-02-05T12:32:55.447Z,16.65
2023-02-05T12:35:40.712Z,13.52
2023-02-05T12:38:44.164Z,210.65
2023-02-05T12:41:38.252Z,163.80
2023-02-05T12:44:34.094Z,166.90
2023-02-05T12:47:13.162Z,118.82
2023-02-05T12:50:00.381Z,97.25
2023-02-05T12:52:33.001Z,99.60
2023-02-05T12:55:05.995Z,37.15
2023-02-05T12:57:42.374Z,44.25
2023-02-05T13:00:19.969Z,32.53
2023-02-05T13:03:24.679Z,41.53
2023-02-05T13:05:58.117Z,46.97
2023-02-05T13:08:43.939Z,45.45
2023-02-05T13:11:26.858Z,39.25
2023-02-05T13:14:13.408Z,33.47
2023-02-05T13:16:50.410Z,38.42
2023-02-05T13:19:20.307Z,33.90
2023-02-05T13:22:06.321Z,30.50
2023-02-05T13:25:08.896Z,20.60
2023-02-05T13:28:00.959Z,20.98
2023-02-05T13:30:47.442Z,21.00
2023-02-05T13:33:14.546Z,15.50
2023-02-05T13:35:49.858Z,12.98
2023-02-05T13:38:32.672Z,13.52
2023-02-05T13:41:05.395Z,13.38
2023-02-05T13:43:47.783Z,12.27
2023-02-05T13:46:43.618Z,14.88
2023-02-05T13:49:29.051Z,23.95
2023-02-05T13:52:01.927Z,23.83
2023-02-05T13:55:08.806Z,20.30
2023-02-05T13:58:06.525Z,16.70
2023-02-05T14:00:34.783Z,26.20
2023-02-05T14:03:05.901Z,16.60
2023-02-05T14:08:05.074Z,15.15
2023-02-05T14:10:45.357Z,20.08
2023-02-05T14:13:34.608Z,18.73
2023-02-05T14:16:26.862Z,18.13
2023-02-05T14:19:02.623Z,14.25
2023-02-05T14:21:32.677Z,14.55
2023-02-05T14:24:22.088Z,18.30
2023-02-05T14:27:00.829Z,11.18
2023-02-05T14:29:51.629Z,19.13
2023-02-05T14:32:28.022Z,12.32
2023-02-05T14:35:10.844Z,8.57
2023-02-05T14:37:40.732Z,13.77
2023-02-05T14:40:28.027Z,12.70
2023-02-05T14:43:09.615Z,12.38
2023-02-05T14:45:45.164Z,27.85
2023-02-05T14:48:26.456Z,17.40
2023-02-05T14:53:30.445Z,17.50
2023-02-05T14:55:57.410Z,14.27
2023-02-05T14:58:32.098Z,20.27
2023-02-05T15:01:35.992Z,40.50
2023-02-05T15:04:04.644Z,15.10
2023-02-05T15:06:40.743Z,50.70
2023-02-05T15:09:18.876Z,14.88
2023-02-05T15:11:57.903Z,13.77
2023-02-05T15:14:32.920Z,26.13
2023-02-05T15:17:05.913Z,15.15
2023-02-05T15:19:50.015Z,37.50
2023-02-05T15:22:37.579Z,22.45
2023-02-05T15:25:22.845Z,22.98
2023-02-05T15:27:59.921Z,34.45
2023-02-05T15:30:32.590Z,24.05
2023-02-05T15:33:10.808Z,9.63
2023-02-05T15:35:44.159Z,19.58
2023-02-05T15:38:35.832Z,12.35
2023-02-05T15:41:08.070Z,20.25
2023-02-05T15:43:35.149Z,11.63
2023-02-05T15:46:06.369Z,18.27
2023-02-05T15:48:36.954Z,18.98
2023-02-05T15:51:19.590Z,17.50
2023-02-05T15:53:50.509Z,23.02
2023-02-05T15:56:33.189Z,22.25
2023-02-05T15:59:04.843Z,21.65
2023-02-05T16:01:46.713Z,54.03
2023-02-05T16:04:29.483Z,15.10
2023-02-05T16:06:56.944Z,30.13
2023-02-05T16:09:27.248Z,13.82
2023-02-05T16:11:55.753Z,20.93
2023-02-05T16:14:25.818Z,39.85
2023-02-05T16:17:09.725Z,36.42
2023-02-05T16:19:39.438Z,16.92
2023-02-05T16:22:17.353Z,16.15
2023-02-05T16:24:49.407Z,15.27
2023-02-05T16:27:23.101Z,14.85
2023-02-05T16:29:55.825Z,16.90
2023-02-05T16:32:33.855Z,25.77
2023-02-05T16:35:04.674Z,8.23
2023-02-05T16:37:32.707Z,15.57
2023-02-05T16:40:03.614Z,13.40
2023-02-05T16:42:37.707Z,17.00
2023-02-05T16:45:13.484Z,18.98
2023-02-05T16:47:40.696Z,13.60
2023-02-05T16:50:44.028Z,13.45
2023-02-05T16:53:37.530Z,13.70
2023-02-05T16:56:19.678Z,8.00
2023-02-05T16:58:53.876Z,9.88
2023-02-05T17:01:31.206Z,25.88
2023-02-05T17:03:58.590Z,30.92
2023-02-05T17:06:34.643Z,27.75
2023-02-05T17:09:05.817Z,17.33
2023-02-05T17:11:42.311Z,24.63
2023-02-05T17:14:25.251Z,31.17
2023-02-05T17:16:58.399Z,16.45
2023-02-05T17:19:26.780Z,67.63
2023-02-05T17:22:16.214Z,21.60
2023-02-05T17:24:45.567Z,86.10
2023-02-05T17:27:25.165Z,30.95
2023-02-05T17:29:52.696Z,18.85
2023-02-05T17:32:22.230Z,28.88
2023-02-05T17:34:49.787Z,18.17
2023-02-05T17:37:19.089Z,129.57
2023-02-05T17:39:46.345Z,38.35
2023-02-05T17:42:23.791Z,30.90
2023-02-05T17:44:52.026Z,34.28
2023-02-05T17:47:20.690Z,26.10
2023-02-05T17:49:48.532Z,29.83
2023-02-05T17:52:23.495Z,44.47
2023-02-05T17:54:51.370Z,22.52
2023-02-05T17:57:23.033Z,23.42
2023-02-05T17:59:50.722Z,25.50
2023-02-05T18:02:19.536Z,55.38
2023-02-05T18:04:47.451Z,17.40
2023-02-05T18:07:38.969Z,18.23
2023-02-05T18:10:07.242Z,24.70
2023-02-05T18:12:34.754Z,32.83
2023-02-05T18:15:01.763Z,13.50
2023-02-05T18:17:29.085Z,25.30
2023-02-05T18:19:56.427Z,31.50
2023-02-05T18:22:23.801Z,23.00
2023-02-05T18:24:51.099Z,17.85
2023-02-05T18:27:19.381Z,19.83
2023-02-05T18:29:46.461Z,23.02
2023-02-05T18:32:13.596Z,35.58
2023-02-05T18:34:40.761Z,112.32
2023-02-05T18:37:08.201Z,18.92
2023-02-05T18:39:35.533Z,35.20
2023-02-05T18:42:03.275Z,12.55
2023-02-05T18:44:30.659Z,28.80
2023-02-05T18:46:58.086Z,26.30
2023-02-05T18:49:25.359Z,20.90
2023-02-05T18:51:54.701Z,30.50
2023-02-05T18:54:21.778Z,26.48
2023-02-05T18:56:48.785Z,16.20
2023-02-05T18:59:18.446Z,58.05
2023-02-05T19:01:45.686Z,36.38
2023-02-05T19:04:16.093Z,33.80
2023-02-05T19:06:45.152Z,28.65
2023-02-05T19:09:12.406Z,20.17
2023-02-05T19:11:41.712Z,27.48
2023-02-05T19:14:12.736Z,25.65
2023-02-05T19:16:41.091Z,11.10
2023-02-05T19:19:08.757Z,34.97
2023-02-05T19:21:38.758Z,27.83
2023-02-05T19:24:08.183Z,27.23
2023-02-05T19:26:37.373Z,34.90
2023-02-05T19:29:08.178Z,24.88
2023-02-05T19:31:39.080Z,63.00
2023-02-05T19:34:06.871Z,33.30
2023-02-05T19:36:34.791Z,29.73
2023-02-05T19:39:04.611Z,19.67
2023-02-05T19:41:34.490Z,25.35
2023-02-05T19:44:04.953Z,14.65
2023-02-05T19:46:37.340Z,12.07
2023-02-05T19:49:08.737Z,16.92
2023-02-05T19:51:36.911Z,15.50
2023-02-05T19:54:04.532Z,17.15
2023-02-05T19:56:32.733Z,13.07
2023-02-05T19:59:00.148Z,15.25
2023-02-05T20:01:32.880Z,9.73
2023-02-05T20:04:18.202Z,8.23
2023-02-05T20:06:47.584Z,9.00
2023-02-05T20:09:16.795Z,18.58
2023-02-05T20:11:46.577Z,10.52
2023-02-05T20:14:13.960Z,4.93
2023-02-05T20:16:42.558Z,10.43
2023-02-05T20:19:14.859Z,10.23
2023-02-05T20:21:43.255Z,3.28
2023-02-05T20:24:10.942Z,7.38
2023-02-05T20:26:38.896Z,6.95
2023-02-05T20:29:25.036Z,3.78
2023-02-05T20:31:53.758Z,5.88
2023-02-05T20:34:31.220Z,4.70
2023-02-05T20:37:02.820Z,4.13
2023-02-05T20:39:32.248Z,11.20
2023-02-05T20:41:59.998Z,5.22
2023-02-05T20:44:30.402Z,8.45
2023-02-05T20:46:57.941Z,7.28
2023-02-05T20:49:26.391Z,8.07
2023-02-05T20:51:54.359Z,5.70
2023-02-05T20:54:22.695Z,8.73
2023-02-05T20:56:57.584Z,9.63
2023-02-05T20:59:25.136Z,4.43
2023-02-05T21:01:52.828Z,16.42
2023-02-05T21:04:23.492Z,5.93
2023-02-05T21:06:52.653Z,4.68
2023-02-05T21:09:21.388Z,6.05
2023-02-05T21:11:50.663Z,3.50
2023-02-05T21:14:17.974Z,5.65
2023-02-05T21:16:45.273Z,8.43
2023-02-05T21:19:13.257Z,6.22
2023-02-05T21:21:40.659Z,11.30
2023-02-05T21:24:17.375Z,6.47
2023-02-05T21:26:49.847Z,3.95
2023-02-05T21:29:20.043Z,6.70
2023-02-05T21:32:00.402Z,6.43
2023-02-05T21:34:28.750Z,5.25
2023-02-05T21:36:57.883Z,7.57
2023-02-05T21:39:26.177Z,3.90
2023-02-05T21:41:55.948Z,7.43
2023-02-05T21:44:24.343Z,3.08
2023-02-05T21:46:56.236Z,5.82
2023-02-05T21:49:26.626Z,7.57
2023-02-05T21:51:53.996Z,7.90
2023-02-05T21:54:25.444Z,8.30
2023-02-05T21:56:53.401Z,8.82
2023-02-05T21:59:21.111Z,4.43
2023-02-05T22:01:48.677Z,6.43
2023-02-05T22:04:16.844Z,5.18
2023-02-05T22:06:44.993Z,7.95
2023-02-05T22:09:14.736Z,6.40
2023-02-05T22:11:42.858Z,4.97
2023-02-05T22:14:10.608Z,13.40
2023-02-05T22:16:38.168Z,6.70
2023-02-05T22:19:06.179Z,4.07
2023-02-05T22:21:38.691Z,3.67
2023-02-05T22:24:08.035Z,6.55
2023-02-05T22:26:38.404Z,13.80
2023-02-05T22:29:08.297Z,16.63
2023-02-05T22:31:36.527Z,41.78
2023-02-05T22:34:05.234Z,14.38
2023-02-05T22:36:34.327Z,12.15
2023-02-05T22:39:02.269Z,7.47
2023-02-05T22:41:34.409Z,9.20
2023-02-05T22:44:02.942Z,10.40
2023-02-05T22:46:35.505Z,10.35
2023-02-05T22:49:03.866Z,6.80
2023-02-05T22:51:37.798Z,14.68
2023-02-05T22:54:05.806Z,8.63
2023-02-05T22:56:33.401Z,8.77
2023-02-05T22:59:03.056Z,6.45
2023-02-05T23:01:34.375Z,7.00
2023-02-05T23:04:03.417Z,5.80
2023-02-05T23:06:33.679Z,7.60
2023-02-05T23:09:02.347Z,10.23
2023-02-05T23:11:30.977Z,3.63
2023-02-05T23:14:00.367Z,9.00
2023-02-05T23:16:31.271Z,8.93
2023-02-05T23:19:01.530Z,5.75
2023-02-05T23:21:30.432Z,1.92
2023-02-05T23:23:58.091Z,7.70
2023-02-05T23:26:28.268Z,5.70
2023-02-05T23:28:56.311Z,5.55
2023-02-05T23:31:25.470Z,5.28
2023-02-05T23:33:53.129Z,4.35
2023-02-05T23:36:20.376Z,5.93
2023-02-05T23:38:47.930Z,5.20
2023-02-05T23:41:15.203Z,8.32
2023-02-05T23:43:42.579Z,4.30
2023-02-05T23:46:09.541Z,6.38
2023-02-05T23:48:36.541Z,5.47
2023-02-05T23:51:03.594Z,3.40
2023-02-05T23:53:30.474Z,5.03
2023-02-05T23:55:57.736Z,5.07
2023-02-05T23:58:26.220Z,4.15
